createdAt,value
2023-04-11T00:00:43.958Z,87.08
2023-04-11T00:01:43.993Z,87.08
2023-04-11T00:02:44.130Z,87.18
2023-04-11T00:03:44.111Z,87.49
2023-04-11T00:04:44.054Z,87.18
2023-04-11T00:05:43.895Z,87.29
2023-04-11T00:06:43.894Z,87.29
2023-04-11T00:07:43.883Z,87.08
2023-04-11T00:08:43.862Z,86.77
2023-04-11T00:09:43.848Z,86.94
2023-04-11T00:10:45.638Z,86.53
2023-04-11T00:11:43.811Z,86.67
2023-04-11T00:12:43.808Z,86.98
2023-04-11T00:13:43.790Z,87.49
2023-04-11T00:14:43.781Z,87.08
2023-04-11T00:15:43.799Z,86.67
2023-04-11T00:16:43.829Z,87.08
2023-04-11T00:17:43.792Z,87.18
2023-04-11T00:18:43.737Z,87.08
2023-04-11T00:19:43.720Z,87.49
2023-04-11T00:20:43.740Z,86.77
2023-04-11T00:21:43.706Z,86.77
2023-04-11T00:22:43.722Z,87.08
2023-04-11T00:23:43.697Z,86.57
2023-04-11T00:24:43.682Z,86.63
2023-04-11T00:25:43.716Z,86.63
2023-04-11T00:26:43.642Z,86.77
2023-04-11T00:27:43.648Z,85.85
2023-04-11T00:28:43.620Z,85.96
2023-04-11T00:29:43.630Z,86.16
2023-04-11T00:30:43.607Z,86.02
2023-04-11T00:31:43.643Z,85.75
2023-04-11T00:32:43.612Z,86.32
2023-04-11T00:33:43.577Z,85.71
2023-04-11T00:34:43.562Z,85.75
2023-04-11T00:35:43.569Z,85.64
2023-04-11T00:36:43.668Z,85.40
2023-04-11T00:37:43.538Z,86.02
2023-04-11T00:38:43.524Z,85.85
2023-04-11T00:39:43.517Z,85.30
2023-04-11T00:40:43.479Z,85.34
2023-04-11T00:41:43.531Z,85.44
2023-04-11T00:42:43.465Z,85.75
2023-04-11T00:43:43.464Z,85.64
2023-04-11T00:44:43.437Z,85.71
2023-04-11T00:45:43.513Z,85.34
2023-04-11T00:46:45.528Z,86.36
2023-04-11T00:47:43.468Z,85.96
2023-04-11T00:48:43.386Z,86.12
2023-04-11T00:49:43.394Z,86.26
2023-04-11T00:50:43.379Z,85.85
2023-04-11T00:51:43.399Z,85.85
2023-04-11T00:52:43.354Z,86.05
2023-04-11T00:53:43.334Z,86.67
2023-04-11T00:54:43.348Z,85.96
2023-04-11T00:55:43.310Z,85.50
2023-04-11T00:56:43.313Z,85.40
2023-04-11T00:57:43.304Z,85.61
2023-04-11T00:58:43.274Z,85.75
2023-04-11T00:59:43.295Z,85.81
2023-04-11T01:00:43.248Z,85.81
2023-04-11T01:01:43.482Z,85.81
2023-04-11T01:02:43.726Z,86.02
2023-04-11T01:03:43.319Z,85.61
2023-04-11T01:04:43.232Z,85.81
2023-04-11T01:05:43.230Z,85.50
2023-04-11T01:06:43.192Z,85.61
2023-04-11T01:07:43.190Z,85.40
2023-04-11T01:08:43.166Z,84.89
2023-04-11T01:09:43.252Z,85.50
2023-04-11T01:10:43.164Z,85.77
2023-04-11T01:11:43.146Z,85.20
2023-04-11T01:12:43.133Z,84.48
2023-04-11T01:13:43.117Z,84.75
2023-04-11T01:14:43.137Z,84.95
2023-04-11T01:15:43.102Z,84.65
2023-04-11T01:16:43.113Z,83.62
2023-04-11T01:17:43.095Z,83.73
2023-04-11T01:18:43.073Z,83.42
2023-04-11T01:19:43.087Z,83.62
2023-04-11T01:20:43.029Z,83.42
2023-04-11T01:21:43.040Z,83.32
2023-04-11T01:22:43.031Z,83.73
2023-04-11T01:23:43.014Z,83.52
2023-04-11T01:24:43.010Z,83.59
2023-04-11T01:25:42.981Z,83.42
2023-04-11T01:26:43.015Z,83.52
2023-04-11T01:27:42.964Z,83.73
2023-04-11T01:28:42.942Z,83.52
2023-04-11T01:29:42.962Z,83.52
2023-04-11T01:30:42.958Z,83.62
2023-04-11T01:31:42.924Z,83.22
2023-04-11T01:32:42.907Z,83.25
2023-04-11T01:33:42.891Z,83.46
2023-04-11T01:34:42.879Z,83.56
2023-04-11T01:35:42.908Z,83.87
2023-04-11T01:36:42.887Z,83.73
2023-04-11T01:37:42.886Z,83.93
2023-04-11T01:38:42.838Z,84.17
2023-04-11T01:39:42.828Z,84.07
2023-04-11T01:40:42.815Z,84.79
2023-04-11T01:41:42.825Z,84.38
2023-04-11T01:42:42.867Z,84.28
2023-04-11T01:43:42.783Z,84.17
2023-04-11T01:44:42.754Z,83.97
2023-04-11T01:45:42.763Z,84.28
2023-04-11T01:46:42.861Z,84.69
2023-04-11T01:47:42.797Z,84.58
2023-04-11T01:48:42.820Z,84.48
2023-04-11T01:49:42.701Z,83.87
2023-04-11T01:50:42.700Z,83.25
2023-04-11T01:51:42.695Z,83.87
2023-04-11T01:52:42.693Z,83.76
2023-04-11T01:53:42.672Z,83.97
2023-04-11T01:54:42.653Z,83.97
2023-04-11T01:55:42.646Z,83.46
2023-04-11T01:56:42.616Z,83.87
2023-04-11T01:57:42.676Z,83.76
2023-04-11T01:58:42.616Z,83.36
2023-04-11T01:59:42.589Z,83.46
2023-04-11T02:00:42.577Z,83.46
2023-04-11T02:01:42.665Z,83.81
2023-04-11T02:02:42.729Z,83.09
2023-04-11T02:03:42.604Z,83.25
2023-04-11T02:04:42.541Z,83.81
2023-04-11T02:05:42.539Z,83.70
2023-04-11T02:06:42.516Z,83.87
2023-04-11T02:07:42.528Z,84.22
2023-04-11T02:08:42.504Z,83.91
2023-04-11T02:09:42.477Z,84.22
2023-04-11T02:10:42.459Z,84.01
2023-04-11T02:11:42.468Z,84.22
2023-04-11T02:12:42.448Z,83.91
2023-04-11T02:13:42.455Z,83.60
2023-04-11T02:14:42.454Z,83.50
2023-04-11T02:15:42.485Z,83.81
2023-04-11T02:16:42.403Z,83.70
2023-04-11T02:17:42.450Z,83.50
2023-04-11T02:18:42.369Z,83.91
2023-04-11T02:19:42.396Z,83.39
2023-04-11T02:20:42.348Z,83.39
2023-04-11T02:21:42.382Z,83.39
2023-04-11T02:22:42.346Z,83.39
2023-04-11T02:23:42.332Z,83.60
2023-04-11T02:24:42.302Z,83.39
2023-04-11T02:25:42.294Z,83.91
2023-04-11T02:26:42.318Z,83.39
2023-04-11T02:27:42.287Z,83.39
2023-04-11T02:28:42.262Z,83.44
2023-04-11T02:29:42.260Z,84.05
2023-04-11T02:30:42.309Z,83.54
2023-04-11T02:31:42.341Z,83.44
2023-04-11T02:32:42.254Z,83.33
2023-04-11T02:33:42.206Z,83.54
2023-04-11T02:34:42.194Z,83.19
2023-04-11T02:35:42.209Z,83.54
2023-04-11T02:36:42.190Z,83.39
2023-04-11T02:37:42.169Z,83.54
2023-04-11T02:38:42.139Z,83.23
2023-04-11T02:39:42.135Z,83.95
2023-04-11T02:40:42.116Z,83.54
2023-04-11T02:41:42.126Z,83.74
2023-04-11T02:42:42.118Z,83.29
2023-04-11T02:43:42.104Z,83.50
2023-04-11T02:44:42.084Z,83.54
2023-04-11T02:45:42.063Z,82.71
2023-04-11T02:46:42.128Z,83.44
2023-04-11T02:47:42.169Z,83.33
2023-04-11T02:48:42.058Z,83.50
2023-04-11T02:49:42.022Z,82.92
2023-04-11T02:50:42.017Z,83.54
2023-04-11T02:51:42.013Z,83.39
2023-04-11T02:52:42.009Z,82.82
2023-04-11T02:53:42.007Z,82.82
2023-04-11T02:54:41.961Z,83.39
2023-04-11T02:55:41.958Z,82.92
2023-04-11T02:56:41.948Z,83.50
2023-04-11T02:57:41.941Z,83.84
2023-04-11T02:58:42.236Z,82.98
2023-04-11T02:59:41.956Z,82.68
2023-04-11T03:00:41.913Z,82.31
2023-04-11T03:01:42.006Z,82.21
2023-04-11T03:02:42.161Z,82.21
2023-04-11T03:03:41.934Z,83.54
2023-04-11T03:04:41.852Z,83.54
2023-04-11T03:05:41.873Z,83.44
2023-04-11T03:06:41.824Z,83.23
2023-04-11T03:07:41.815Z,82.92
2023-04-11T03:08:41.801Z,83.19
2023-04-11T03:09:41.816Z,83.54
2023-04-11T03:10:41.803Z,83.44
2023-04-11T03:11:41.768Z,83.33
2023-04-11T03:12:41.760Z,83.64
2023-04-11T03:13:41.752Z,83.68
2023-04-11T03:14:41.733Z,83.54
2023-04-11T03:15:41.823Z,83.17
2023-04-11T03:16:41.759Z,83.58
2023-04-11T03:17:41.753Z,83.27
2023-04-11T03:18:41.801Z,83.58
2023-04-11T03:19:41.700Z,83.78
2023-04-11T03:20:41.674Z,83.68
2023-04-11T03:21:41.668Z,83.47
2023-04-11T03:22:41.658Z,83.27
2023-04-11T03:23:41.661Z,83.31
2023-04-11T03:24:41.623Z,83.20
2023-04-11T03:25:41.691Z,83.31
2023-04-11T03:26:41.612Z,83.51
2023-04-11T03:27:41.603Z,83.31
2023-04-11T03:28:41.574Z,83.68
2023-04-11T03:29:41.566Z,83.10
2023-04-11T03:30:41.552Z,84.03
2023-04-11T03:31:41.571Z,83.10
2023-04-11T03:32:41.631Z,83.41
2023-04-11T03:33:41.535Z,83.00
2023-04-11T03:34:41.548Z,83.00
2023-04-11T03:35:41.548Z,82.39
2023-04-11T03:36:42.457Z,83.00
2023-04-11T03:37:41.511Z,82.39
2023-04-11T03:38:41.484Z,82.49
2023-04-11T03:39:41.476Z,82.39
2023-04-11T03:40:41.439Z,82.39
2023-04-11T03:41:41.451Z,82.49
2023-04-11T03:42:41.433Z,82.69
2023-04-11T03:43:41.429Z,82.79
2023-04-11T03:44:41.405Z,82.59
2023-04-11T03:45:41.399Z,82.69
2023-04-11T03:46:41.401Z,82.49
2023-04-11T03:47:41.394Z,82.53
2023-04-11T03:48:41.376Z,82.93
2023-04-11T03:49:41.361Z,82.63
2023-04-11T03:50:41.360Z,82.42
2023-04-11T03:51:41.322Z,82.83
2023-04-11T03:52:41.333Z,82.63
2023-04-11T03:53:41.321Z,82.63
2023-04-11T03:54:41.283Z,82.73
2023-04-11T03:55:41.293Z,82.83
2023-04-11T03:56:41.259Z,82.28
2023-04-11T03:57:41.309Z,82.79
2023-04-11T03:58:41.244Z,82.83
2023-04-11T03:59:41.263Z,82.83
2023-04-11T04:00:41.209Z,82.69
2023-04-11T04:01:41.298Z,82.28
2023-04-11T04:02:41.402Z,82.01
2023-04-11T04:03:41.429Z,82.83
2023-04-11T04:04:41.248Z,82.63
2023-04-11T04:05:41.173Z,82.79
2023-04-11T04:06:41.170Z,82.22
2023-04-11T04:07:41.145Z,82.63
2023-04-11T04:08:41.126Z,82.42
2023-04-11T04:09:41.124Z,82.73
2023-04-11T04:10:41.099Z,82.12
2023-04-11T04:11:41.101Z,82.53
2023-04-11T04:12:41.079Z,82.32
2023-04-11T04:13:41.095Z,82.93
2023-04-11T04:14:41.081Z,82.83
2023-04-11T04:15:41.089Z,82.32
2023-04-11T04:16:41.125Z,82.32
2023-04-11T04:17:41.108Z,82.42
2023-04-11T04:18:41.013Z,82.63
2023-04-11T04:19:41.019Z,82.32
2023-04-11T04:20:40.989Z,82.42
2023-04-11T04:21:40.997Z,82.97
2023-04-11T04:22:41.007Z,82.42
2023-04-11T04:23:40.959Z,82.12
2023-04-11T04:24:40.945Z,82.93
2023-04-11T04:25:40.963Z,82.42
2023-04-11T04:26:40.934Z,83.14
2023-04-11T04:27:40.903Z,82.93
2023-04-11T04:28:40.888Z,82.93
2023-04-11T04:29:40.895Z,82.90
2023-04-11T04:30:40.890Z,82.39
2023-04-11T04:31:40.897Z,82.49
2023-04-11T04:32:40.914Z,82.59
2023-04-11T04:33:40.851Z,82.28
2023-04-11T04:34:40.822Z,82.39
2023-04-11T04:35:40.838Z,82.69
2023-04-11T04:36:40.812Z,82.59
2023-04-11T04:37:40.799Z,82.28
2023-04-11T04:38:40.813Z,82.59
2023-04-11T04:39:40.778Z,82.79
2023-04-11T04:40:40.781Z,82.39
2023-04-11T04:41:40.738Z,82.18
2023-04-11T04:42:40.735Z,82.08
2023-04-11T04:43:40.732Z,81.77
2023-04-11T04:44:40.709Z,81.67
2023-04-11T04:45:40.743Z,81.71
2023-04-11T04:46:40.684Z,81.81
2023-04-11T04:47:40.685Z,81.81
2023-04-11T04:48:40.675Z,81.67
2023-04-11T04:49:40.650Z,81.87
2023-04-11T04:50:40.662Z,81.81
2023-04-11T04:51:40.662Z,81.71
2023-04-11T04:52:40.630Z,81.81
2023-04-11T04:53:40.609Z,82.01
2023-04-11T04:54:40.652Z,81.91
2023-04-11T04:55:40.595Z,81.91
2023-04-11T04:56:40.589Z,81.91
2023-04-11T04:57:40.590Z,81.71
2023-04-11T04:58:40.567Z,81.60
2023-04-11T04:59:40.547Z,81.81
2023-04-11T05:00:40.540Z,82.32
2023-04-11T05:01:40.606Z,81.87
2023-04-11T05:02:40.711Z,81.98
2023-04-11T05:03:40.547Z,81.91
2023-04-11T05:04:40.494Z,82.12
2023-04-11T05:05:40.490Z,81.91
2023-04-11T05:06:40.461Z,82.01
2023-04-11T05:07:40.483Z,81.46
2023-04-11T05:08:40.450Z,81.71
2023-04-11T05:09:40.437Z,82.01
2023-04-11T05:10:40.434Z,81.91
2023-04-11T05:11:40.408Z,82.32
2023-04-11T05:12:40.407Z,81.91
2023-04-11T05:13:40.404Z,82.01
2023-04-11T05:14:40.371Z,82.01
2023-04-11T05:15:40.363Z,81.91
2023-04-11T05:16:40.404Z,81.91
2023-04-11T05:17:40.379Z,81.91
2023-04-11T05:18:40.352Z,81.87
2023-04-11T05:19:40.305Z,82.42
2023-04-11T05:20:40.322Z,82.01
2023-04-11T05:21:40.315Z,81.67
2023-04-11T05:22:40.289Z,82.18
2023-04-11T05:23:40.268Z,82.28
2023-04-11T05:24:40.296Z,81.46
2023-04-11T05:25:40.243Z,81.91
2023-04-11T05:26:40.307Z,81.67
2023-04-11T05:27:40.226Z,82.08
2023-04-11T05:28:40.204Z,82.28
2023-04-11T05:29:40.200Z,81.87
2023-04-11T05:30:40.203Z,82.39
2023-04-11T05:31:40.190Z,82.32
2023-04-11T05:32:40.242Z,81.77
2023-04-11T05:33:40.157Z,82.08
2023-04-11T05:34:40.150Z,82.18
2023-04-11T05:35:40.183Z,81.46
2023-04-11T05:36:40.163Z,81.46
2023-04-11T05:37:40.101Z,81.67
2023-04-11T05:38:40.107Z,81.36
2023-04-11T05:39:40.095Z,81.26
2023-04-11T05:40:40.102Z,81.71
2023-04-11T05:41:40.073Z,81.87
2023-04-11T05:42:40.076Z,81.81
2023-04-11T05:43:40.042Z,82.08
2023-04-11T05:44:40.047Z,81.77
2023-04-11T05:45:40.015Z,81.87
2023-04-11T05:46:40.156Z,81.77
2023-04-11T05:47:40.059Z,81.36
2023-04-11T05:48:39.982Z,81.87
2023-04-11T05:49:39.969Z,82.08
2023-04-11T05:50:39.962Z,81.84
2023-04-11T05:51:39.949Z,81.98
2023-04-11T05:52:39.969Z,81.94
2023-04-11T05:53:39.936Z,82.18
2023-04-11T05:54:39.933Z,81.46
2023-04-11T05:55:39.901Z,81.87
2023-04-11T05:56:39.925Z,81.98
2023-04-11T05:57:39.913Z,81.87
2023-04-11T05:58:39.905Z,82.04
2023-04-11T05:59:39.852Z,81.73
2023-04-11T06:00:39.850Z,81.36
2023-04-11T06:01:40.012Z,81.67
2023-04-11T06:02:40.145Z,80.91
2023-04-11T06:03:39.931Z,80.85
2023-04-11T06:04:39.990Z,81.36
2023-04-11T06:05:39.794Z,81.46
2023-04-11T06:06:39.776Z,81.67
2023-04-11T06:07:39.809Z,81.87
2023-04-11T06:08:39.763Z,80.95
2023-04-11T06:09:39.740Z,81.36
2023-04-11T06:10:39.725Z,81.63
2023-04-11T06:11:39.713Z,81.32
2023-04-11T06:12:39.733Z,80.91
2023-04-11T06:13:39.714Z,80.71
2023-04-11T06:14:40.591Z,81.01
2023-04-11T06:15:39.696Z,81.32
2023-04-11T06:16:39.674Z,81.52
2023-04-11T06:17:39.695Z,81.01
2023-04-11T06:18:39.659Z,81.01
2023-04-11T06:19:39.637Z,80.81
2023-04-11T06:20:39.636Z,81.12
2023-04-11T06:21:39.599Z,80.51
2023-04-11T06:22:39.616Z,80.91
2023-04-11T06:23:39.579Z,81.12
2023-04-11T06:24:39.584Z,81.12
2023-04-11T06:25:39.595Z,80.40
2023-04-11T06:26:39.546Z,79.75
2023-04-11T06:27:39.592Z,79.71
2023-04-11T06:28:39.524Z,79.71
2023-04-11T06:29:39.508Z,79.41
2023-04-11T06:30:39.535Z,79.61
2023-04-11T06:31:39.567Z,79.88
2023-04-11T06:32:39.569Z,79.37
2023-04-11T06:33:39.486Z,78.65
2023-04-11T06:34:39.479Z,77.83
2023-04-11T06:35:39.460Z,77.39
2023-04-11T06:36:39.436Z,77.53
2023-04-11T06:37:39.416Z,76.61
2023-04-11T06:38:39.452Z,76.91
2023-04-11T06:39:39.406Z,77.39
2023-04-11T06:40:39.385Z,76.88
2023-04-11T06:41:39.381Z,76.06
2023-04-11T06:42:39.372Z,75.65
2023-04-11T06:43:39.346Z,76.37
2023-04-11T06:44:39.405Z,77.29
2023-04-11T06:45:39.324Z,76.37
2023-04-11T06:46:39.500Z,76.57
2023-04-11T06:47:39.365Z,76.57
2023-04-11T06:48:39.302Z,76.57
2023-04-11T06:49:39.283Z,76.37
2023-04-11T06:50:39.309Z,76.26
2023-04-11T06:51:39.268Z,75.75
2023-04-11T06:52:39.253Z,76.16
2023-04-11T06:53:39.251Z,75.45
2023-04-11T06:54:39.249Z,75.65
2023-04-11T06:55:39.226Z,75.75
2023-04-11T06:56:39.205Z,75.41
2023-04-11T06:57:39.202Z,75.71
2023-04-11T06:58:39.198Z,75.21
2023-04-11T06:59:39.184Z,75.41
2023-04-11T07:00:39.176Z,76.03
2023-04-11T07:01:39.289Z,75.37
2023-04-11T07:02:39.510Z,75.17
2023-04-11T07:03:39.298Z,74.15
2023-04-11T07:04:39.253Z,73.13
2023-04-11T07:05:39.609Z,73.13
2023-04-11T07:06:39.109Z,72.82
2023-04-11T07:07:39.152Z,73.19
2023-04-11T07:08:39.094Z,72.86
2023-04-11T07:09:39.056Z,72.75
2023-04-11T07:10:39.077Z,72.31
2023-04-11T07:11:39.075Z,71.70
2023-04-11T07:12:39.040Z,71.06
2023-04-11T07:13:39.041Z,70.44
2023-04-11T07:14:39.002Z,70.27
2023-04-11T07:15:39.007Z,70.34
2023-04-11T07:16:39.148Z,70.14
2023-04-11T07:17:39.028Z,69.73
2023-04-11T07:18:39.109Z,70.14
2023-04-11T07:19:38.941Z,70.75
2023-04-11T07:20:38.932Z,70.24
2023-04-11T07:21:38.921Z,70.14
2023-04-11T07:22:38.929Z,69.63
2023-04-11T07:23:38.930Z,69.93
2023-04-11T07:24:38.894Z,69.56
2023-04-11T07:25:38.871Z,70.17
2023-04-11T07:26:39.054Z,70.37
2023-04-11T07:27:38.872Z,70.17
2023-04-11T07:28:38.864Z,69.73
2023-04-11T07:29:38.825Z,70.57
2023-04-11T07:30:38.823Z,70.68
2023-04-11T07:31:38.821Z,70.48
2023-04-11T07:32:38.870Z,70.24
2023-04-11T07:33:38.811Z,70.14
2023-04-11T07:34:38.835Z,69.63
2023-04-11T07:35:38.832Z,69.02
2023-04-11T07:36:38.752Z,68.81
2023-04-11T07:37:38.736Z,68.78
2023-04-11T07:38:38.753Z,68.57
2023-04-11T07:39:38.714Z,67.32
2023-04-11T07:40:38.720Z,67.86
2023-04-11T07:41:38.688Z,67.25
2023-04-11T07:42:38.697Z,67.43
2023-04-11T07:43:38.884Z,67.32
2023-04-11T07:44:38.675Z,68.65
2023-04-11T07:45:38.716Z,68.75
2023-04-11T07:46:38.660Z,67.19
2023-04-11T07:47:38.637Z,66.99
2023-04-11T07:48:38.668Z,66.38
2023-04-11T07:49:38.597Z,66.88
2023-04-11T07:50:38.707Z,66.44
2023-04-11T07:51:38.592Z,65.63
2023-04-11T07:52:38.580Z,65.83
2023-04-11T07:53:38.580Z,65.60
2023-04-11T07:54:38.549Z,65.50
2023-04-11T07:55:38.556Z,65.06
2023-04-11T07:56:38.536Z,64.42
2023-04-11T07:57:38.517Z,64.22
2023-04-11T07:58:38.497Z,63.51
2023-04-11T07:59:38.480Z,63.40
2023-04-11T08:00:38.504Z,64.09
2023-04-11T08:01:38.525Z,63.71
2023-04-11T08:02:38.598Z,62.90
2023-04-11T08:03:38.647Z,62.08
2023-04-11T08:04:38.500Z,62.21
2023-04-11T08:05:38.449Z,62.21
2023-04-11T08:06:38.516Z,61.91
2023-04-11T08:07:38.402Z,63.51
2023-04-11T08:08:38.381Z,62.05
2023-04-11T08:09:38.376Z,61.55
2023-04-11T08:10:38.383Z,61.65
2023-04-11T08:11:38.346Z,62.39
2023-04-11T08:12:38.336Z,62.90
2023-04-11T08:13:38.341Z,63.07
2023-04-11T08:14:38.321Z,62.84
2023-04-11T08:15:38.298Z,62.84
2023-04-11T08:16:38.422Z,62.20
2023-04-11T08:17:38.539Z,61.97
2023-04-11T08:18:38.327Z,61.97
2023-04-11T08:19:38.271Z,59.91
2023-04-11T08:20:38.265Z,60.01
2023-04-11T08:21:38.240Z,58.56
2023-04-11T08:22:38.291Z,58.29
2023-04-11T08:23:38.243Z,58.59
2023-04-11T08:24:38.201Z,59.10
2023-04-11T08:25:38.232Z,58.90
2023-04-11T08:26:38.195Z,58.49
2023-04-11T08:27:38.181Z,59.00
2023-04-11T08:28:39.190Z,60.01
2023-04-11T08:29:38.163Z,59.88
2023-04-11T08:30:38.202Z,60.08
2023-04-11T08:31:38.138Z,59.34
2023-04-11T08:32:38.131Z,58.54
2023-04-11T08:33:38.127Z,57.62
2023-04-11T08:34:38.103Z,58.23
2023-04-11T08:35:38.128Z,57.93
2023-04-11T08:36:38.080Z,57.60
2023-04-11T08:37:38.060Z,57.40
2023-04-11T08:38:38.513Z,57.37
2023-04-11T08:39:38.040Z,55.98
2023-04-11T08:40:38.036Z,55.88
2023-04-11T08:41:38.023Z,56.10
2023-04-11T08:42:38.018Z,56.28
2023-04-11T08:43:37.992Z,56.21
2023-04-11T08:44:38.004Z,57.20
2023-04-11T08:45:37.960Z,57.29
2023-04-11T08:46:37.990Z,55.57
2023-04-11T08:47:37.973Z,55.47
2023-04-11T08:48:37.943Z,55.35
2023-04-11T08:49:37.943Z,55.27
2023-04-11T08:50:37.907Z,56.01
2023-04-11T08:51:37.889Z,56.89
2023-04-11T08:52:37.876Z,55.98
2023-04-11T08:53:37.899Z,55.55
2023-04-11T08:54:37.891Z,55.02
2023-04-11T08:55:37.860Z,54.69
2023-04-11T08:56:37.882Z,55.07
2023-04-11T08:57:37.825Z,55.54
2023-04-11T08:58:37.843Z,54.31
2023-04-11T08:59:37.800Z,53.60
2023-04-11T09:00:37.785Z,52.24
2023-04-11T09:01:37.899Z,51.43
2023-04-11T09:02:37.820Z,51.00
2023-04-11T09:03:37.819Z,51.03
2023-04-11T09:04:37.784Z,51.33
2023-04-11T09:05:37.748Z,51.03
2023-04-11T09:06:37.717Z,50.65
2023-04-11T09:07:37.714Z,50.16
2023-04-11T09:08:37.708Z,50.27
2023-04-11T09:09:37.744Z,51.61
2023-04-11T09:10:37.698Z,51.98
2023-04-11T09:11:37.679Z,51.78
2023-04-11T09:12:37.684Z,51.68
2023-04-11T09:13:37.642Z,51.18
2023-04-11T09:14:37.736Z,52.09
2023-04-11T09:15:37.645Z,51.96
2023-04-11T09:16:37.607Z,50.32
2023-04-11T09:17:37.654Z,50.73
2023-04-11T09:18:37.607Z,50.35
2023-04-11T09:19:37.633Z,51.86
2023-04-11T09:20:37.575Z,50.67
2023-04-11T09:21:37.566Z,52.41
2023-04-11T09:22:37.556Z,51.86
2023-04-11T09:23:37.535Z,52.89
2023-04-11T09:24:37.560Z,53.19
2023-04-11T09:25:37.512Z,53.83
2023-04-11T09:26:37.517Z,54.03
2023-04-11T09:27:37.496Z,53.45
2023-04-11T09:28:37.477Z,54.18
2023-04-11T09:29:37.496Z,54.59
2023-04-11T09:30:37.457Z,53.96
2023-04-11T09:31:37.482Z,54.44
2023-04-11T09:32:37.471Z,54.61
2023-04-11T09:33:37.442Z,53.58
2023-04-11T09:34:37.430Z,53.05
2023-04-11T09:35:37.427Z,52.41
2023-04-11T09:36:37.394Z,51.20
2023-04-11T09:37:37.389Z,52.09
2023-04-11T09:38:37.376Z,49.99
2023-04-11T09:39:37.372Z,50.82
2023-04-11T09:40:37.335Z,52.01
2023-04-11T09:41:37.331Z,52.23
2023-04-11T09:42:37.363Z,51.63
2023-04-11T09:43:37.319Z,52.23
2023-04-11T09:44:37.334Z,52.16
2023-04-11T09:45:47.769Z,51.88
2023-04-11T09:46:38.326Z,52.41
2023-04-11T09:47:37.332Z,53.50
2023-04-11T09:48:46.578Z,53.30
2023-04-11T09:49:38.315Z,54.38
2023-04-11T09:50:37.249Z,53.88
2023-04-11T09:51:37.441Z,52.97
2023-04-11T09:52:37.220Z,53.27
2023-04-11T09:53:37.190Z,52.16
2023-04-11T09:54:37.225Z,52.03
2023-04-11T09:55:37.181Z,53.02
2023-04-11T09:56:37.170Z,52.72
2023-04-11T09:57:37.147Z,51.48
2023-04-11T09:58:37.153Z,49.54
2023-04-11T09:59:37.144Z,49.05
2023-04-11T10:00:37.120Z,48.73
2023-04-11T10:01:37.217Z,48.83
2023-04-11T10:02:37.248Z,49.33
2023-04-11T10:03:37.150Z,49.84
2023-04-11T10:04:37.126Z,48.75
2023-04-11T10:05:37.069Z,49.38
2023-04-11T10:06:37.040Z,48.50
2023-04-11T10:07:37.072Z,49.93
2023-04-11T10:08:37.032Z,50.24
2023-04-11T10:09:37.062Z,50.46
2023-04-11T10:10:37.017Z,50.44
2023-04-11T10:11:37.020Z,49.41
2023-04-11T10:12:36.985Z,49.18
2023-04-11T10:13:36.994Z,48.65
2023-04-11T10:14:36.989Z,47.24
2023-04-11T10:15:36.987Z,48.21
2023-04-11T10:16:36.953Z,49.72
2023-04-11T10:17:36.981Z,48.16
2023-04-11T10:18:36.906Z,47.05
2023-04-11T10:19:36.914Z,46.04
2023-04-11T10:20:36.881Z,47.25
2023-04-11T10:21:36.895Z,46.33
2023-04-11T10:22:36.873Z,44.92
2023-04-11T10:23:36.868Z,45.92
2023-04-11T10:24:36.876Z,46.25
2023-04-11T10:25:36.846Z,44.65
2023-04-11T10:26:36.836Z,46.89
2023-04-11T10:27:36.822Z,47.09
2023-04-11T10:28:36.807Z,48.71
2023-04-11T10:29:36.815Z,48.08
2023-04-11T10:30:36.797Z,48.16
2023-04-11T10:31:36.824Z,46.83
2023-04-11T10:32:36.793Z,45.72
2023-04-11T10:33:36.739Z,43.91
2023-04-11T10:34:36.729Z,44.51
2023-04-11T10:35:36.734Z,44.31
2023-04-11T10:36:36.701Z,45.01
2023-04-11T10:37:36.737Z,45.90
2023-04-11T10:38:36.706Z,44.59
2023-04-11T10:39:36.678Z,44.61
2023-04-11T10:40:36.672Z,44.13
2023-04-11T10:41:36.665Z,44.75
2023-04-11T10:42:36.666Z,44.98
2023-04-11T10:43:39.098Z,45.18
2023-04-11T10:44:36.644Z,44.07
2023-04-11T10:45:36.606Z,44.67
2023-04-11T10:46:37.224Z,44.79
2023-04-11T10:47:36.637Z,44.39
2023-04-11T10:48:36.691Z,44.21
2023-04-11T10:49:36.660Z,44.13
2023-04-11T10:50:36.561Z,44.54
2023-04-11T10:51:36.583Z,45.25
2023-04-11T10:52:36.535Z,44.94
2023-04-11T10:53:36.569Z,46.56
2023-04-11T10:54:36.515Z,46.33
2023-04-11T10:55:36.496Z,44.71
2023-04-11T10:56:36.499Z,45.30
2023-04-11T10:57:36.483Z,44.59
2023-04-11T10:58:36.458Z,45.48
2023-04-11T10:59:36.490Z,44.47
2023-04-11T11:00:36.445Z,45.76
2023-04-11T11:01:42.992Z,46.26
2023-04-11T11:02:37.547Z,44.81
2023-04-11T11:03:36.587Z,44.31
2023-04-11T11:04:36.596Z,43.99
2023-04-11T11:05:36.384Z,42.19
2023-04-11T11:06:46.158Z,44.01
2023-04-11T11:07:37.359Z,42.90
2023-04-11T11:08:36.368Z,44.49
2023-04-11T11:09:36.395Z,43.18
2023-04-11T11:10:36.342Z,42.88
2023-04-11T11:11:36.322Z,42.18
2023-04-11T11:12:36.313Z,43.87
2023-04-11T11:13:36.307Z,42.46
2023-04-11T11:14:36.318Z,43.14
2023-04-11T11:15:36.270Z,42.94
2023-04-11T11:16:36.309Z,43.54
2023-04-11T11:17:36.263Z,44.04
2023-04-11T11:18:36.309Z,41.03
2023-04-11T11:19:36.228Z,41.73
2023-04-11T11:20:36.261Z,41.83
2023-04-11T11:21:36.215Z,41.85
2023-04-11T11:22:36.186Z,41.15
2023-04-11T11:23:36.474Z,40.69
2023-04-11T11:24:36.190Z,41.31
2023-04-11T11:25:36.203Z,43.04
2023-04-11T11:26:36.142Z,43.85
2023-04-11T11:27:36.137Z,44.45
2023-04-11T11:28:36.140Z,44.15
2023-04-11T11:29:36.125Z,44.25
2023-04-11T11:30:36.105Z,44.25
2023-04-11T11:31:36.147Z,44.25
2023-04-11T11:32:36.113Z,44.35
2023-04-11T11:33:36.071Z,44.75
2023-04-11T11:34:36.099Z,43.93
2023-04-11T11:35:36.063Z,43.12
2023-04-11T11:36:36.039Z,43.12
2023-04-11T11:37:36.025Z,42.90
2023-04-11T11:38:36.010Z,41.99
2023-04-11T11:39:36.012Z,42.01
2023-04-11T11:40:35.993Z,43.52
2023-04-11T11:41:35.992Z,44.33
2023-04-11T11:42:35.960Z,43.20
2023-04-11T11:43:35.962Z,44.11
2023-04-11T11:44:35.966Z,43.91
2023-04-11T11:45:35.991Z,41.89
2023-04-11T11:46:35.965Z,42.90
2023-04-11T11:47:35.991Z,42.18
2023-04-11T11:48:35.910Z,43.40
2023-04-11T11:49:35.931Z,41.89
2023-04-11T11:50:35.936Z,42.21
2023-04-11T11:51:35.878Z,43.00
2023-04-11T11:52:35.874Z,43.12
2023-04-11T11:53:35.873Z,43.42
2023-04-11T11:54:35.845Z,42.82
2023-04-11T11:55:35.832Z,43.00
2023-04-11T11:56:35.806Z,43.60
2023-04-11T11:57:35.819Z,42.98
2023-04-11T11:58:35.782Z,43.08
2023-04-11T11:59:35.789Z,43.46
2023-04-11T12:00:35.761Z,43.16
2023-04-11T12:01:35.769Z,41.03
2023-04-11T12:02:35.946Z,40.95
2023-04-11T12:03:35.893Z,41.25
2023-04-11T12:04:35.886Z,41.17
2023-04-11T12:05:35.789Z,41.49
2023-04-11T12:06:35.729Z,41.99
2023-04-11T12:07:35.709Z,41.89
2023-04-11T12:08:35.683Z,42.92
2023-04-11T12:09:35.685Z,43.34
2023-04-11T12:10:35.658Z,41.71
2023-04-11T12:11:35.656Z,42.94
2023-04-11T12:12:35.626Z,41.61
2023-04-11T12:13:35.618Z,43.20
2023-04-11T12:14:35.603Z,42.10
2023-04-11T12:15:35.657Z,41.17
2023-04-11T12:16:35.615Z,41.27
2023-04-11T12:17:37.631Z,41.17
2023-04-11T12:18:35.569Z,40.64
2023-04-11T12:19:35.549Z,41.23
2023-04-11T12:20:35.580Z,40.12
2023-04-11T12:21:35.540Z,41.33
2023-04-11T12:22:35.585Z,41.33
2023-04-11T12:23:35.516Z,40.92
2023-04-11T12:24:35.524Z,40.92
2023-04-11T12:25:35.507Z,41.23
2023-04-11T12:26:35.472Z,40.92
2023-04-11T12:27:35.472Z,42.11
2023-04-11T12:28:35.452Z,41.41
2023-04-11T12:29:35.434Z,40.61
2023-04-11T12:30:35.451Z,39.90
2023-04-11T12:31:35.451Z,39.80
2023-04-11T12:32:35.484Z,39.70
2023-04-11T12:33:35.390Z,40.61
2023-04-11T12:34:35.392Z,41.41
2023-04-11T12:35:35.400Z,41.21
2023-04-11T12:36:35.367Z,41.41
2023-04-11T12:37:35.355Z,39.80
2023-04-11T12:38:35.423Z,41.82
2023-04-11T12:39:35.347Z,41.49
2023-04-11T12:40:35.374Z,41.69
2023-04-11T12:41:35.312Z,42.19
2023-04-11T12:42:36.838Z,39.88
2023-04-11T12:43:36.299Z,37.57
2023-04-11T12:44:35.262Z,38.98
2023-04-11T12:45:35.270Z,39.42
2023-04-11T12:46:35.250Z,39.76
2023-04-11T12:47:35.301Z,39.84
2023-04-11T12:48:35.216Z,40.56
2023-04-11T12:49:35.223Z,40.99
2023-04-11T12:50:35.253Z,41.49
2023-04-11T12:51:35.188Z,41.11
2023-04-11T12:52:35.172Z,41.11